createdAt,value
2019-01-28T00:01:05.497Z,95221.75
2019-01-28T00:03:35.166Z,95225.36
2019-01-28T00:06:06.603Z,95232.67
2019-01-28T00:08:35.817Z,95232.33
2019-01-28T00:11:03.650Z,95224.50
2019-01-28T00:13:36.548Z,95229.09
2019-01-28T00:16:03.566Z,95233.20
2019-01-28T00:18:37.115Z,95228.75
2019-01-28T00:21:05.944Z,95230.86
2019-01-28T00:23:34.065Z,95227.16
2019-01-28T00:26:01.724Z,95223.23
2019-01-28T00:28:29.377Z,95224.72
2019-01-28T00:30:56.948Z,95228.41
2019-01-28T00:33:28.883Z,95235.19
2019-01-28T00:35:56.850Z,95223.80
2019-01-28T00:38:25.186Z,95221.44
2019-01-28T00:40:54.395Z,95220.78
2019-01-28T00:43:23.336Z,95215.73
2019-01-28T00:45:52.430Z,95224.05
2019-01-28T00:48:23.184Z,95224.47
2019-01-28T00:50:50.734Z,95215.66
2019-01-28T00:53:18.750Z,95216.45
2019-01-28T00:55:49.879Z,95219.91
2019-01-28T00:58:18.230Z,95215.23
2019-01-28T01:00:46.905Z,95212.87
2019-01-28T01:03:15.073Z,95204.95
2019-01-28T01:05:43.304Z,95199.16
2019-01-28T01:08:12.361Z,95198.22
2019-01-28T01:10:39.186Z,95202.24
2019-01-28T01:13:06.835Z,95204.27
2019-01-28T01:15:34.266Z,95199.16
2019-01-28T01:18:05.039Z,95200.17
2019-01-28T01:20:34.237Z,95195.30
2019-01-28T01:23:04.827Z,95187.22
2019-01-28T01:25:32.106Z,95191.27
2019-01-28T01:28:02.484Z,95190.89
2019-01-28T01:30:29.914Z,95185.47
2019-01-28T01:32:57.693Z,95181.54
2019-01-28T01:35:25.680Z,95185.55
2019-01-28T01:37:53.582Z,95184.85
2019-01-28T01:40:21.627Z,95189.31
2019-01-28T01:42:54.934Z,95187.93
2019-01-28T01:45:23.996Z,95185.56
2019-01-28T01:47:52.437Z,95179.45
2019-01-28T01:50:20.087Z,95182.15
2019-01-28T01:52:48.917Z,95170.38
2019-01-28T01:55:21.603Z,95171.04
2019-01-28T01:57:48.492Z,95165.82
2019-01-28T02:00:15.891Z,95161.91
2019-01-28T02:02:49.723Z,95154.88
2019-01-28T02:05:19.714Z,95141.28
2019-01-28T02:07:47.475Z,95143.06
2019-01-28T02:10:28.093Z,95138.56
2019-01-28T02:12:56.019Z,95145.45
2019-01-28T02:15:23.642Z,95144.94
2019-01-28T02:17:50.543Z,95146.13
2019-01-28T02:20:20.271Z,95152.87
2019-01-28T02:22:49.923Z,95148.53
2019-01-28T02:25:19.634Z,95147.17
2019-01-28T02:27:45.995Z,95155.39
2019-01-28T02:30:12.825Z,95161.00
2019-01-28T02:35:29.101Z,95152.84
2019-01-28T02:40:31.275Z,95156.67
2019-01-28T02:42:58.356Z,95158.23
2019-01-28T02:45:25.303Z,95159.75
2019-01-28T02:47:52.155Z,95157.14
2019-01-28T02:50:18.767Z,95157.73
2019-01-28T02:52:45.707Z,95158.09
2019-01-28T02:55:12.448Z,95164.80
2019-01-28T02:57:39.293Z,95160.53
2019-01-28T03:00:06.253Z,95159.12
2019-01-28T03:02:33.522Z,95157.00
2019-01-28T03:05:00.516Z,95149.76
2019-01-28T03:07:28.428Z,95149.38
2019-01-28T03:09:55.353Z,95138.19
2019-01-28T03:12:22.180Z,95139.48
2019-01-28T03:14:48.891Z,95133.76
2019-01-28T03:17:16.650Z,95126.01
2019-01-28T03:19:44.036Z,95124.61
2019-01-28T03:22:10.742Z,95123.67
2019-01-28T03:24:37.908Z,95125.30
2019-01-28T03:27:04.688Z,95128.05
2019-01-28T03:29:31.668Z,95128.89
2019-01-28T03:31:58.313Z,95121.73
2019-01-28T03:34:26.516Z,95125.65
2019-01-28T03:36:53.498Z,95120.58
2019-01-28T03:39:20.131Z,95108.78
2019-01-28T03:41:46.917Z,95116.84
2019-01-28T03:44:14.198Z,95114.38
2019-01-28T03:46:40.930Z,95110.75
2019-01-28T03:49:07.634Z,95111.19
2019-01-28T03:51:34.306Z,95112.64
2019-01-28T03:54:01.335Z,95115.81
2019-01-28T03:56:28.373Z,95121.91
2019-01-28T03:58:56.064Z,95130.09
2019-01-28T04:01:22.744Z,95137.48
2019-01-28T04:03:49.449Z,95140.88
2019-01-28T04:06:16.872Z,95147.28
2019-01-28T04:08:43.479Z,95146.19
2019-01-28T04:11:10.449Z,95149.55
2019-01-28T04:13:37.573Z,95148.36
2019-01-28T04:16:04.982Z,95145.70
2019-01-28T04:18:31.934Z,95150.02
2019-01-28T04:20:58.563Z,95149.36
2019-01-28T04:26:10.782Z,95149.21
2019-01-28T04:28:37.654Z,95140.41
2019-01-28T04:31:04.778Z,95139.54
2019-01-28T04:33:31.854Z,95127.48
2019-01-28T04:36:00.967Z,95121.36
2019-01-28T04:38:32.149Z,95129.53
2019-01-28T04:41:00.197Z,95136.36
2019-01-28T04:43:30.548Z,95131.75
2019-01-28T04:46:00.170Z,95126.12
2019-01-28T04:48:27.107Z,95119.02
2019-01-28T04:50:56.045Z,95118.78
2019-01-28T04:53:23.965Z,95120.95
2019-01-28T04:56:05.470Z,95121.74
2019-01-28T04:58:32.963Z,95136.09
2019-01-28T05:00:59.514Z,95134.23
2019-01-28T05:03:26.245Z,95134.67
2019-01-28T05:05:53.137Z,95138.28
2019-01-28T05:08:19.991Z,95134.87
2019-01-28T05:10:48.402Z,95136.08
2019-01-28T05:13:15.024Z,95147.47
2019-01-28T05:15:41.940Z,95154.42
2019-01-28T05:18:08.581Z,95153.53
2019-01-28T05:20:35.230Z,95155.25
2019-01-28T05:23:02.121Z,95160.89
2019-01-28T05:25:29.105Z,95166.36
2019-01-28T05:27:56.309Z,95167.33
2019-01-28T05:30:23.114Z,95177.36
2019-01-28T05:32:50.073Z,95173.38
2019-01-28T05:35:17.990Z,95176.34
2019-01-28T05:37:44.823Z,95171.72
2019-01-28T05:40:11.665Z,95173.83
2019-01-28T05:42:38.374Z,95169.76
2019-01-28T05:45:05.054Z,95175.33
2019-01-28T05:47:31.663Z,95182.08
2019-01-28T05:49:58.441Z,95190.20
2019-01-28T05:52:25.106Z,95194.08
2019-01-28T05:54:51.846Z,95195.51
2019-01-28T05:57:18.934Z,95197.41
2019-01-28T05:59:45.582Z,95193.34
2019-01-28T06:02:12.609Z,95190.80
2019-01-28T06:04:39.233Z,95200.95
2019-01-28T06:07:05.868Z,95206.95
2019-01-28T06:09:32.831Z,95209.64
2019-01-28T06:11:59.777Z,95223.26
2019-01-28T06:14:26.611Z,95218.48
2019-01-28T06:16:53.386Z,95226.73
2019-01-28T06:19:20.127Z,95227.08
2019-01-28T06:21:47.062Z,95233.25
2019-01-28T06:24:14.026Z,95237.52
2019-01-28T06:26:40.971Z,95238.67
2019-01-28T06:29:07.704Z,95234.48
2019-01-28T06:31:34.700Z,95242.84
2019-01-28T06:34:01.561Z,95239.11
2019-01-28T06:36:28.395Z,95242.59
2019-01-28T06:38:57.331Z,95241.67
2019-01-28T06:41:24.825Z,95252.56
2019-01-28T06:43:51.783Z,95258.14
2019-01-28T06:46:19.810Z,95267.89
2019-01-28T06:48:53.757Z,95285.27
2019-01-28T06:51:20.423Z,95286.68
2019-01-28T06:53:52.491Z,95283.13
2019-01-28T06:56:22.055Z,95290.23
2019-01-28T06:58:49.894Z,95288.63
2019-01-28T07:01:16.588Z,95299.05
2019-01-28T07:03:47.274Z,95303.75
2019-01-28T07:06:14.651Z,95305.50
2019-01-28T07:08:43.828Z,95302.36
2019-01-28T07:11:12.203Z,95306.95
2019-01-28T07:13:44.994Z,95315.27
2019-01-28T07:16:14.293Z,95318.59
2019-01-28T07:18:45.292Z,95325.33
2019-01-28T07:21:13.146Z,95338.30
2019-01-28T07:23:43.690Z,95328.80
2019-01-28T07:26:14.576Z,95319.38
2019-01-28T07:28:42.932Z,95327.10
2019-01-28T07:31:13.260Z,95318.74
2019-01-28T07:33:44.359Z,95318.46
2019-01-28T07:36:13.940Z,95317.44
2019-01-28T07:38:40.780Z,95328.61
2019-01-28T07:41:08.529Z,95332.23
2019-01-28T07:43:40.621Z,95335.94
2019-01-28T07:46:07.978Z,95325.92
2019-01-28T07:48:36.856Z,95325.84
2019-01-28T07:51:04.604Z,95335.14
2019-01-28T07:53:35.427Z,95335.94
2019-01-28T07:56:06.342Z,95338.94
2019-01-28T07:58:37.073Z,95336.47
2019-01-28T08:01:03.851Z,95335.78
2019-01-28T08:03:30.739Z,95340.33
2019-01-28T08:05:58.080Z,95340.22
2019-01-28T08:08:28.236Z,95339.06
2019-01-28T08:10:56.248Z,95342.91
2019-01-28T08:13:26.078Z,95333.68
2019-01-28T08:15:52.761Z,95337.77
2019-01-28T08:18:20.821Z,95346.48
2019-01-28T08:20:49.892Z,95347.76
2019-01-28T08:23:17.599Z,95350.98
2019-01-28T08:25:48.976Z,95353.86
2019-01-28T08:31:06.016Z,95345.75
2019-01-28T08:33:37.745Z,95341.80
2019-01-28T08:38:51.486Z,95354.17
2019-01-28T08:41:18.194Z,95352.47
2019-01-28T08:43:47.787Z,95356.23
2019-01-28T08:46:16.669Z,95349.48
2019-01-28T08:51:32.149Z,95351.62
2019-01-28T08:54:00.953Z,95347.38
2019-01-28T08:56:28.631Z,95349.80
2019-01-28T08:58:58.334Z,95347.55
2019-01-28T09:01:25.722Z,95348.36
2019-01-28T09:03:52.539Z,95344.05
2019-01-28T09:06:19.247Z,95351.72
2019-01-28T09:08:46.285Z,95356.91
2019-01-28T09:11:13.524Z,95353.74
2019-01-28T09:13:40.268Z,95363.06
2019-01-28T09:16:07.370Z,95368.67
2019-01-28T09:18:34.593Z,95373.86
2019-01-28T09:21:01.610Z,95377.39
2019-01-28T09:23:28.581Z,95382.98
2019-01-28T09:25:55.409Z,95387.52
2019-01-28T09:28:22.288Z,95390.05
2019-01-28T09:30:49.106Z,95391.52
2019-01-28T09:33:15.939Z,95392.03
2019-01-28T09:35:42.595Z,95396.55
2019-01-28T09:38:09.528Z,95396.81
2019-01-28T09:40:36.516Z,95405.48
2019-01-28T09:43:03.778Z,95399.19
2019-01-28T09:45:30.618Z,95395.50
2019-01-28T09:47:57.532Z,95393.75
2019-01-28T09:50:27.264Z,95397.05
2019-01-28T09:53:11.820Z,95395.69
2019-01-28T09:55:43.015Z,95406.56
2019-01-28T09:58:12.785Z,95407.36
2019-01-28T10:00:42.359Z,95407.69
2019-01-28T10:03:15.358Z,95413.23
2019-01-28T10:05:44.384Z,95409.42
2019-01-28T10:08:11.031Z,95401.53
2019-01-28T10:10:40.038Z,95402.46
2019-01-28T10:13:06.979Z,95398.61
2019-01-28T10:15:35.865Z,95398.84
2019-01-28T10:18:05.754Z,95386.94
2019-01-28T10:20:33.438Z,95391.45
2019-01-28T10:23:00.176Z,95401.16
2019-01-28T10:25:30.246Z,95402.81
2019-01-28T10:27:57.067Z,95402.33
2019-01-28T10:30:24.043Z,95401.11
2019-01-28T10:32:52.102Z,95399.88
2019-01-28T10:35:18.881Z,95400.84
2019-01-28T10:37:46.356Z,95398.39
2019-01-28T10:40:16.686Z,95388.13
2019-01-28T10:42:47.737Z,95388.30
2019-01-28T10:45:17.160Z,95388.84
2019-01-28T10:47:47.802Z,95385.84
2019-01-28T10:50:14.525Z,95392.38
2019-01-28T10:52:41.719Z,95390.98
2019-01-28T10:55:09.089Z,95393.41
2019-01-28T10:57:38.497Z,95392.25
2019-01-28T11:00:05.240Z,95396.20
2019-01-28T11:02:32.281Z,95404.87
2019-01-28T11:05:02.601Z,95405.27
2019-01-28T11:07:29.244Z,95401.85
2019-01-28T11:09:57.600Z,95395.94
2019-01-28T11:12:26.864Z,95403.31
2019-01-28T11:14:57.749Z,95388.94
2019-01-28T11:17:27.947Z,95390.05
2019-01-28T11:19:59.622Z,95390.34
2019-01-28T11:22:27.790Z,95386.73
2019-01-28T11:24:54.581Z,95380.61
2019-01-28T11:27:24.095Z,95382.41
2019-01-28T11:29:55.871Z,95376.84
2019-01-28T11:32:24.986Z,95384.33
2019-01-28T11:34:56.188Z,95384.56
2019-01-28T11:37:27.950Z,95380.66
2019-01-28T11:39:56.556Z,95377.06
2019-01-28T11:42:28.091Z,95376.46
2019-01-28T11:44:53.653Z,95376.70
2019-01-28T11:47:26.087Z,95373.55
2019-01-28T11:49:57.019Z,95377.70
2019-01-28T11:52:23.791Z,95382.06
2019-01-28T11:54:50.665Z,95383.63
2019-01-28T11:57:33.461Z,95388.68
2019-01-28T11:59:57.497Z,95377.61
2019-01-28T12:02:34.018Z,95381.66
2019-01-28T12:04:59.041Z,95378.63
2019-01-28T12:07:29.472Z,95383.38
2019-01-28T12:09:58.175Z,95384.38
2019-01-28T12:12:27.746Z,95381.35
2019-01-28T12:14:55.364Z,95378.01
2019-01-28T12:17:23.847Z,95378.98
2019-01-28T12:19:52.572Z,95375.48
2019-01-28T12:22:30.597Z,95376.77
2019-01-28T12:25:00.995Z,95384.05
2019-01-28T12:27:29.047Z,95380.20
2019-01-28T12:29:57.219Z,95382.89
2019-01-28T12:35:12.488Z,95386.09
2019-01-28T12:37:40.174Z,95382.02
2019-01-28T12:40:14.801Z,95384.17
2019-01-28T12:42:41.677Z,95389.39
2019-01-28T12:45:11.001Z,95387.81
2019-01-28T12:47:37.775Z,95389.97
2019-01-28T12:50:06.840Z,95386.12
2019-01-28T12:52:35.709Z,95394.17
2019-01-28T12:55:04.431Z,95401.08
2019-01-28T12:57:30.795Z,95397.43
2019-01-28T13:00:00.931Z,95396.21
2019-01-28T13:02:30.119Z,95395.73
2019-01-28T13:04:56.750Z,95398.84
2019-01-28T13:07:25.965Z,95392.56
2019-01-28T13:09:52.894Z,95397.78
2019-01-28T13:12:21.784Z,95405.19
2019-01-28T13:14:49.702Z,95401.52
2019-01-28T13:17:18.674Z,95406.13
2019-01-28T13:19:49.009Z,95398.84
2019-01-28T13:22:20.180Z,95401.31
2019-01-28T13:24:47.879Z,95404.26
2019-01-28T13:27:14.815Z,95407.84
2019-01-28T13:29:41.979Z,95412.67
2019-01-28T13:32:11.889Z,95416.50
2019-01-28T13:34:39.419Z,95412.30
2019-01-28T13:37:06.066Z,95410.59
2019-01-28T13:39:38.465Z,95410.33
2019-01-28T13:42:07.018Z,95416.20
2019-01-28T13:44:34.303Z,95420.28
2019-01-28T13:47:06.503Z,95411.12
2019-01-28T13:49:38.189Z,95410.16
2019-01-28T13:52:06.774Z,95415.90
2019-01-28T13:54:33.178Z,95422.25
2019-01-28T13:57:03.929Z,95430.41
2019-01-28T13:59:31.212Z,95434.69
2019-01-28T14:04:43.388Z,95436.90
2019-01-28T14:07:10.053Z,95447.61
2019-01-28T14:09:36.658Z,95448.74
2019-01-28T14:12:03.497Z,95451.16
2019-01-28T14:14:30.437Z,95453.09
2019-01-28T14:16:57.074Z,95457.61
2019-01-28T14:19:23.753Z,95460.10
2019-01-28T14:21:50.517Z,95454.27
2019-01-28T14:24:17.146Z,95455.62
2019-01-28T14:26:43.864Z,95463.47
2019-01-28T14:29:10.747Z,95462.00
2019-01-28T14:31:37.643Z,95468.11
2019-01-28T14:34:04.246Z,95465.95
2019-01-28T14:36:30.887Z,95472.00
2019-01-28T14:39:01.388Z,95475.77
2019-01-28T14:41:31.861Z,95474.73
2019-01-28T14:44:00.711Z,95479.67
2019-01-28T14:46:29.378Z,95475.67
2019-01-28T14:48:57.693Z,95482.14
2019-01-28T14:51:24.437Z,95478.66
2019-01-28T14:53:51.380Z,95482.66
2019-01-28T14:56:20.822Z,95487.88
2019-01-28T14:58:47.421Z,95502.44
2019-01-28T15:01:14.135Z,95502.85
2019-01-28T15:03:40.945Z,95503.65
2019-01-28T15:06:07.677Z,95504.27
2019-01-28T15:08:34.802Z,95511.16
2019-01-28T15:11:05.000Z,95517.03
2019-01-28T15:13:35.253Z,95510.69
2019-01-28T15:16:08.828Z,95521.06
2019-01-28T15:18:31.928Z,95521.42
2019-01-28T15:21:00.194Z,95529.84
2019-01-28T15:23:30.317Z,95527.27
2019-01-28T15:25:58.719Z,95527.27
2019-01-28T15:28:25.510Z,95524.95
2019-01-28T15:30:53.238Z,95528.62
2019-01-28T15:33:22.989Z,95530.70
2019-01-28T15:35:51.246Z,95535.12
2019-01-28T15:38:19.461Z,95535.93
2019-01-28T15:40:47.193Z,95539.93
2019-01-28T15:43:15.441Z,95544.33
2019-01-28T15:45:44.191Z,95551.69
2019-01-28T15:48:12.271Z,95546.68
2019-01-28T15:50:39.294Z,95559.09
2019-01-28T15:53:06.276Z,95556.01
2019-01-28T15:55:32.922Z,95557.17
2019-01-28T15:57:59.778Z,95563.31
2019-01-28T16:00:43.845Z,95570.58
2019-01-28T16:03:11.863Z,95575.93
2019-01-28T16:05:42.174Z,95580.80
2019-01-28T16:08:08.909Z,95582.99
2019-01-28T16:10:37.683Z,95596.26
2019-01-28T16:15:51.258Z,95595.20
2019-01-28T16:18:17.898Z,95598.88
2019-01-28T16:20:48.904Z,95605.59
2019-01-28T16:23:22.253Z,95608.88
2019-01-28T16:25:49.811Z,95614.10
2019-01-28T16:28:20.338Z,95610.54
2019-01-28T16:30:51.256Z,95615.56
2019-01-28T16:33:20.226Z,95615.37
2019-01-28T16:35:50.485Z,95621.69
2019-01-28T16:38:17.622Z,95621.15
2019-01-28T16:40:44.268Z,95628.22
2019-01-28T16:43:11.185Z,95625.45
2019-01-28T16:45:38.274Z,95627.47
2019-01-28T16:48:07.629Z,95637.31
2019-01-28T16:50:35.746Z,95636.55
2019-01-28T16:53:03.777Z,95636.64
2019-01-28T16:55:33.021Z,95637.59
2019-01-28T16:58:02.087Z,95643.37
2019-01-28T17:00:31.716Z,95645.06
2019-01-28T17:02:59.544Z,95655.65
2019-01-28T17:05:30.015Z,95652.16
2019-01-28T17:07:58.953Z,95658.91
2019-01-28T17:10:28.148Z,95659.06
2019-01-28T17:12:55.009Z,95667.03
2019-01-28T17:15:23.968Z,95671.30
2019-01-28T17:17:51.676Z,95669.13
2019-01-28T17:20:18.232Z,95670.25
2019-01-28T17:22:44.885Z,95676.61
2019-01-28T17:25:11.786Z,95680.95
2019-01-28T17:27:38.696Z,95681.27
2019-01-28T17:30:05.336Z,95681.27
2019-01-28T17:32:34.384Z,95679.37
2019-01-28T17:35:01.220Z,95694.86
2019-01-28T17:37:27.854Z,95684.68
2019-01-28T17:39:54.754Z,95694.47
2019-01-28T17:42:24.668Z,95695.67
2019-01-28T17:44:51.684Z,95699.11
2019-01-28T17:47:20.705Z,95702.66
2019-01-28T17:50:00.833Z,95701.36
2019-01-28T17:52:19.456Z,95709.69
2019-01-28T17:54:48.195Z,95714.66
2019-01-28T17:57:15.925Z,95715.83
2019-01-28T17:59:42.517Z,95719.59
2019-01-28T18:02:09.697Z,95724.31
2019-01-28T18:04:38.366Z,95724.14
2019-01-28T18:07:06.829Z,95733.58
2019-01-28T18:09:33.638Z,95730.88
2019-01-28T18:14:47.906Z,95740.95
2019-01-28T18:17:15.381Z,95742.64
2019-01-28T18:19:42.283Z,95747.83
2019-01-28T18:22:11.349Z,95760.30
2019-01-28T18:24:38.499Z,95761.58
2019-01-28T18:27:06.987Z,95761.00
2019-01-28T18:29:33.589Z,95758.42
2019-01-28T18:32:01.342Z,95758.21
2019-01-28T18:34:32.440Z,95771.30
2019-01-28T18:36:59.084Z,95770.72
2019-01-28T18:39:26.487Z,95762.81
2019-01-28T18:41:53.159Z,95762.35
2019-01-28T18:44:19.784Z,95760.84
2019-01-28T18:46:46.724Z,95768.98
2019-01-28T18:49:13.621Z,95771.80
2019-01-28T18:51:40.222Z,95775.31
2019-01-28T18:54:07.158Z,95774.56
2019-01-28T18:56:33.817Z,95787.64
2019-01-28T18:59:00.833Z,95787.59
2019-01-28T19:01:27.779Z,95787.59
2019-01-28T19:03:54.416Z,95794.32
2019-01-28T19:06:21.057Z,95797.38
2019-01-28T19:08:47.953Z,95798.48
2019-01-28T19:11:14.816Z,95804.98
2019-01-28T19:13:41.442Z,95805.50
2019-01-28T19:16:08.270Z,95813.95
2019-01-28T19:18:36.432Z,95818.06
2019-01-28T19:21:07.781Z,95816.02
2019-01-28T19:23:31.512Z,95819.80
2019-01-28T19:25:58.158Z,95825.77
2019-01-28T19:28:24.801Z,95819.06
2019-01-28T19:30:51.503Z,95828.89
2019-01-28T19:33:18.240Z,95830.00
2019-01-28T19:35:44.850Z,95834.34
2019-01-28T19:38:11.805Z,95829.30
2019-01-28T19:40:38.376Z,95835.64
2019-01-28T19:43:06.747Z,95833.67
2019-01-28T19:45:33.460Z,95835.62
2019-01-28T19:48:00.074Z,95837.11
2019-01-28T19:50:26.701Z,95844.79
2019-01-28T19:52:53.702Z,95839.79
2019-01-28T19:55:20.623Z,95849.40
2019-01-28T19:57:47.801Z,95848.22
2019-01-28T20:00:14.737Z,95838.42
2019-01-28T20:02:41.717Z,95839.14
2019-01-28T20:05:08.627Z,95847.78
2019-01-28T20:07:35.487Z,95850.23
2019-01-28T20:10:02.111Z,95849.46
2019-01-28T20:12:28.930Z,95859.05
2019-01-28T20:14:55.922Z,95859.55
2019-01-28T20:17:22.872Z,95857.95
2019-01-28T20:19:49.828Z,95863.70
2019-01-28T20:22:16.501Z,95861.84
2019-01-28T20:24:43.102Z,95867.22
2019-01-28T20:27:12.074Z,95864.27
2019-01-28T20:29:38.455Z,95862.98
2019-01-28T20:32:05.703Z,95872.55
2019-01-28T20:34:32.298Z,95869.55
2019-01-28T20:36:59.310Z,95871.75
2019-01-28T20:39:26.346Z,95874.64
2019-01-28T20:44:39.961Z,95880.81
2019-01-28T20:47:07.763Z,95885.50
2019-01-28T20:49:35.539Z,95889.09
2019-01-28T20:52:02.486Z,95884.30
2019-01-28T20:54:29.425Z,95883.88
2019-01-28T20:56:57.655Z,95886.41
2019-01-28T20:59:24.579Z,95890.81
2019-01-28T21:01:51.478Z,95885.69
2019-01-28T21:04:19.725Z,95889.30
2019-01-28T21:06:46.645Z,95889.72
2019-01-28T21:09:13.753Z,95894.51
2019-01-28T21:11:40.465Z,95895.15
2019-01-28T21:14:08.725Z,95894.13
2019-01-28T21:16:35.371Z,95894.48
2019-01-28T21:19:02.095Z,95900.11
2019-01-28T21:21:29.756Z,95905.59
2019-01-28T21:23:56.386Z,95906.50
2019-01-28T21:26:24.007Z,95908.55
2019-01-28T21:28:50.831Z,95907.12
2019-01-28T21:31:18.503Z,95904.52
2019-01-28T21:33:45.234Z,95902.98
2019-01-28T21:36:12.892Z,95907.38
2019-01-28T21:38:39.583Z,95913.83
2019-01-28T21:41:06.431Z,95913.45
2019-01-28T21:43:33.080Z,95915.08
2019-01-28T21:46:00.021Z,95922.31
2019-01-28T21:48:26.771Z,95918.09
2019-01-28T21:50:53.377Z,95925.83
2019-01-28T21:53:20.013Z,95928.78
2019-01-28T21:55:46.812Z,95919.75
2019-01-28T21:58:13.412Z,95933.02
2019-01-28T22:00:42.339Z,95934.88
2019-01-28T22:03:09.016Z,95926.46
2019-01-28T22:05:41.445Z,95936.40
2019-01-28T22:08:08.140Z,95936.94
2019-01-28T22:10:34.720Z,95941.27
2019-01-28T22:15:46.953Z,95938.03
2019-01-28T22:18:15.100Z,95945.36
2019-01-28T22:20:41.857Z,95944.16
2019-01-28T22:23:08.986Z,95948.55
2019-01-28T22:25:35.890Z,95949.23
2019-01-28T22:28:06.262Z,95951.43
2019-01-28T22:30:33.499Z,95949.62
2019-01-28T22:33:00.211Z,95959.80
2019-01-28T22:35:27.541Z,95958.30
2019-01-28T22:37:54.467Z,95960.41
2019-01-28T22:40:22.105Z,95969.95
2019-01-28T22:42:48.838Z,95966.03
2019-01-28T22:45:16.744Z,95966.77
2019-01-28T22:47:43.449Z,95968.08
2019-01-28T22:50:10.130Z,95968.94
2019-01-28T22:52:37.236Z,95966.82
2019-01-28T22:55:04.728Z,95970.58
2019-01-28T22:57:31.432Z,95966.98
2019-01-28T22:59:58.509Z,95964.83
2019-01-28T23:02:25.126Z,95968.16
2019-01-28T23:04:52.112Z,95967.98
2019-01-28T23:07:18.842Z,95980.47
2019-01-28T23:09:45.570Z,95970.75
2019-01-28T23:12:12.492Z,95978.00
2019-01-28T23:14:39.202Z,95979.19
2019-01-28T23:17:06.698Z,95978.94
2019-01-28T23:19:33.730Z,95978.70
2019-01-28T23:22:00.464Z,95982.67
2019-01-28T23:24:27.334Z,95992.48
2019-01-28T23:26:54.912Z,95988.03
2019-01-28T23:29:25.818Z,96002.50
2019-01-28T23:31:52.968Z,96000.84
2019-01-28T23:34:19.908Z,95997.84
2019-01-28T23:36:46.600Z,96004.40
2019-01-28T23:39:13.296Z,95988.18
2019-01-28T23:44:13.694Z,95999.39
2019-01-28T23:46:41.546Z,95998.05
2019-01-28T23:49:08.311Z,95994.09
2019-01-28T23:51:36.562Z,95992.32
2019-01-28T23:54:03.195Z,95990.77
2019-01-28T23:56:30.066Z,95992.00
2019-01-28T23:58:56.982Z,95988.16
